sensor_id;sensor_type;location;lat;lon;timestamp;temperature;humidity
39983;DHT22;25670;44.782;10.356;2024-02-23T00:00:23;8.80;99.90
39983;DHT22;25670;44.782;10.356;2024-02-23T00:02:50;8.80;99.90
39983;DHT22;25670;44.782;10.356;2024-02-23T00:12:36;8.80;99.90
39983;DHT22;25670;44.782;10.356;2024-02-23T00:15:02;8.80;99.90
39983;DHT22;25670;44.782;10.356;2024-02-23T00:29:41;8.80;99.90
39983;DHT22;25670;44.782;10.356;2024-02-23T00:32:08;8.80;99.90
39983;DHT22;25670;44.782;10.356;2024-02-23T00:34:34;8.80;99.90
39983;DHT22;25670;44.782;10.356;2024-02-23T00:37:00;8.90;99.90
39983;DHT22;25670;44.782;10.356;2024-02-23T00:39:28;8.90;99.90
39983;DHT22;25670;44.782;10.356;2024-02-23T00:44:20;8.80;99.90
39983;DHT22;25670;44.782;10.356;2024-02-23T00:46:46;8.80;99.90
39983;DHT22;25670;44.782;10.356;2024-02-23T00:54:06;8.80;99.90
39983;DHT22;25670;44.782;10.356;2024-02-23T00:56:34;8.80;99.90
39983;DHT22;25670;44.782;10.356;2024-02-23T01:08:47;8.80;99.90
39983;DHT22;25670;44.782;10.356;2024-02-23T01:11:14;8.90;99.90
39983;DHT22;25670;44.782;10.356;2024-02-23T01:16:06;8.90;99.90
39983;DHT22;25670;44.782;10.356;2024-02-23T01:20:59;8.90;99.90
39983;DHT22;25670;44.782;10.356;2024-02-23T01:23:26;9.00;99.90
39983;DHT22;25670;44.782;10.356;2024-02-23T01:25:52;8.90;99.90
39983;DHT22;25670;44.782;10.356;2024-02-23T01:33:12;9.00;99.90
39983;DHT22;25670;44.782;10.356;2024-02-23T01:35:38;9.70;99.90
39983;DHT22;25670;44.782;10.356;2024-02-23T01:38:04;9.20;99.90
39983;DHT22;25670;44.782;10.356;2024-02-23T01:43:04;9.00;99.90
39983;DHT22;25670;44.782;10.356;2024-02-23T01:45:31;9.10;99.90
39983;DHT22;25670;44.782;10.356;2024-02-23T01:47:58;9.00;99.90
39983;DHT22;25670;44.782;10.356;2024-02-23T01:50:25;9.00;99.90
39983;DHT22;25670;44.782;10.356;2024-02-23T01:52:53;8.90;99.90
39983;DHT22;25670;44.782;10.356;2024-02-23T01:55:20;8.90;99.90
39983;DHT22;25670;44.782;10.356;2024-02-23T01:57:47;9.00;99.90
39983;DHT22;25670;44.782;10.356;2024-02-23T02:00:17;9.10;99.90
39983;DHT22;25670;44.782;10.356;2024-02-23T02:02:49;9.00;99.90
39983;DHT22;25670;44.782;10.356;2024-02-23T02:05:16;9.50;99.90
39983;DHT22;25670;44.782;10.356;2024-02-23T02:07:43;9.00;99.90
39983;DHT22;25670;44.782;10.356;2024-02-23T02:10:09;9.00;99.90
39983;DHT22;25670;44.782;10.356;2024-02-23T02:12:36;9.00;99.90
39983;DHT22;25670;44.782;10.356;2024-02-23T02:15:03;9.00;99.90
39983;DHT22;25670;44.782;10.356;2024-02-23T02:17:29;8.90;99.90
39983;DHT22;25670;44.782;10.356;2024-02-23T02:19:58;8.90;99.90
39983;DHT22;25670;44.782;10.356;2024-02-23T02:24:51;8.90;99.90
39983;DHT22;25670;44.782;10.356;2024-02-23T02:27:17;8.90;99.90
39983;DHT22;25670;44.782;10.356;2024-02-23T02:29:43;9.30;99.90
39983;DHT22;25670;44.782;10.356;2024-02-23T02:32:09;8.90;99.90
39983;DHT22;25670;44.782;10.356;2024-02-23T02:34:35;8.90;99.90
39983;DHT22;25670;44.782;10.356;2024-02-23T02:37:02;10.20;99.90
39983;DHT22;25670;44.782;10.356;2024-02-23T02:39:28;8.90;99.90
39983;DHT22;25670;44.782;10.356;2024-02-23T02:41:54;8.90;99.90
39983;DHT22;25670;44.782;10.356;2024-02-23T02:44:20;9.00;99.90
39983;DHT22;25670;44.782;10.356;2024-02-23T02:46:46;9.00;99.90
39983;DHT22;25670;44.782;10.356;2024-02-23T02:49:12;9.00;99.90
39983;DHT22;25670;44.782;10.356;2024-02-23T02:51:39;9.00;99.90
39983;DHT22;25670;44.782;10.356;2024-02-23T02:54:06;9.00;99.90
39983;DHT22;25670;44.782;10.356;2024-02-23T03:01:25;8.90;99.90
39983;DHT22;25670;44.782;10.356;2024-02-23T03:08:45;9.10;99.90
39983;DHT22;25670;44.782;10.356;2024-02-23T03:11:11;9.00;99.90
39983;DHT22;25670;44.782;10.356;2024-02-23T03:13:38;9.10;99.90
39983;DHT22;25670;44.782;10.356;2024-02-23T03:16:04;9.20;99.90
39983;DHT22;25670;44.782;10.356;2024-02-23T03:18:30;9.10;99.90
39983;DHT22;25670;44.782;10.356;2024-02-23T03:20:56;9.10;99.90
39983;DHT22;25670;44.782;10.356;2024-02-23T03:23:22;9.10;99.90
39983;DHT22;25670;44.782;10.356;2024-02-23T03:25:49;9.10;99.90
39983;DHT22;25670;44.782;10.356;2024-02-23T03:30:41;8.90;99.90
39983;DHT22;25670;44.782;10.356;2024-02-23T03:33:07;8.80;99.90
39983;DHT22;25670;44.782;10.356;2024-02-23T03:35:34;8.80;99.90
39983;DHT22;25670;44.782;10.356;2024-02-23T03:38:00;8.80;99.90
39983;DHT22;25670;44.782;10.356;2024-02-23T03:40:26;8.80;99.90
39983;DHT22;25670;44.782;10.356;2024-02-23T03:42:52;9.30;99.90
39983;DHT22;25670;44.782;10.356;2024-02-23T03:45:18;8.80;99.90
39983;DHT22;25670;44.782;10.356;2024-02-23T03:47:44;8.80;99.90
39983;DHT22;25670;44.782;10.356;2024-02-23T03:52:37;8.80;99.90
39983;DHT22;25670;44.782;10.356;2024-02-23T03:55:04;8.80;99.90
39983;DHT22;25670;44.782;10.356;2024-02-23T03:57:31;8.70;99.90
39983;DHT22;25670;44.782;10.356;2024-02-23T03:59:57;8.70;99.90
39983;DHT22;25670;44.782;10.356;2024-02-23T04:02:23;8.70;99.90
39983;DHT22;25670;44.782;10.356;2024-02-23T04:04:49;9.20;99.90
39983;DHT22;25670;44.782;10.356;2024-02-23T04:09:43;8.70;99.90
39983;DHT22;25670;44.782;10.356;2024-02-23T04:12:09;8.80;99.90
39983;DHT22;25670;44.782;10.356;2024-02-23T04:14:35;8.90;99.90
39983;DHT22;25670;44.782;10.356;2024-02-23T04:17:03;8.90;99.90
39983;DHT22;25670;44.782;10.356;2024-02-23T04:21:56;8.70;99.90
39983;DHT22;25670;44.782;10.356;2024-02-23T04:34:08;8.90;99.90
39983;DHT22;25670;44.782;10.356;2024-02-23T04:36:34;8.90;99.90
39983;DHT22;25670;44.782;10.356;2024-02-23T04:39:00;8.90;99.90
39983;DHT22;25670;44.782;10.356;2024-02-23T04:41:27;8.90;99.90
39983;DHT22;25670;44.782;10.356;2024-02-23T04:46:26;9.00;99.90
39983;DHT22;25670;44.782;10.356;2024-02-23T04:48:52;9.00;99.90
39983;DHT22;25670;44.782;10.356;2024-02-23T04:51:18;9.00;99.90
39983;DHT22;25670;44.782;10.356;2024-02-23T04:56:12;8.90;99.90
39983;DHT22;25670;44.782;10.356;2024-02-23T05:01:07;9.00;99.90
39983;DHT22;25670;44.782;10.356;2024-02-23T05:03:33;9.00;99.90
39983;DHT22;25670;44.782;10.356;2024-02-23T05:05:59;9.00;99.90
39983;DHT22;25670;44.782;10.356;2024-02-23T05:10:53;9.10;99.90
39983;DHT22;25670;44.782;10.356;2024-02-23T05:13:20;9.10;99.90
39983;DHT22;25670;44.782;10.356;2024-02-23T05:15:46;9.40;99.90
39983;DHT22;25670;44.782;10.356;2024-02-23T05:18:12;9.20;99.90
39983;DHT22;25670;44.782;10.356;2024-02-23T05:20:39;9.30;99.90
39983;DHT22;25670;44.782;10.356;2024-02-23T05:23:05;9.30;99.90
39983;DHT22;25670;44.782;10.356;2024-02-23T05:25:32;9.50;99.90
39983;DHT22;25670;44.782;10.356;2024-02-23T05:27:58;9.50;99.90
39983;DHT22;25670;44.782;10.356;2024-02-23T05:30:24;9.50;99.90
39983;DHT22;25670;44.782;10.356;2024-02-23T05:32:53;9.60;99.90
39983;DHT22;25670;44.782;10.356;2024-02-23T05:35:19;9.70;99.90
39983;DHT22;25670;44.782;10.356;2024-02-23T05:37:45;9.80;99.90
39983;DHT22;25670;44.782;10.356;2024-02-23T05:40:11;9.80;99.90
39983;DHT22;25670;44.782;10.356;2024-02-23T05:42:38;9.90;99.90
39983;DHT22;25670;44.782;10.356;2024-02-23T05:45:06;9.90;99.90
39983;DHT22;25670;44.782;10.356;2024-02-23T05:47:38;10.00;99.90
39983;DHT22;25670;44.782;10.356;2024-02-23T05:50:05;9.90;99.90
39983;DHT22;25670;44.782;10.356;2024-02-23T05:52:32;9.90;99.90
39983;DHT22;25670;44.782;10.356;2024-02-23T05:54:59;10.00;99.90
39983;DHT22;25670;44.782;10.356;2024-02-23T05:57:29;10.00;99.90
39983;DHT22;25670;44.782;10.356;2024-02-23T05:59:56;10.00;99.90
39983;DHT22;25670;44.782;10.356;2024-02-23T06:02:23;10.00;99.90
39983;DHT22;25670;44.782;10.356;2024-02-23T06:04:49;10.00;99.90
39983;DHT22;25670;44.782;10.356;2024-02-23T06:07:16;10.00;99.90
39983;DHT22;25670;44.782;10.356;2024-02-23T06:09:42;9.90;99.90
39983;DHT22;25670;44.782;10.356;2024-02-23T06:12:09;9.80;99.90
39983;DHT22;25670;44.782;10.356;2024-02-23T06:14:36;9.80;99.90
39983;DHT22;25670;44.782;10.356;2024-02-23T06:17:02;9.70;99.90
39983;DHT22;25670;44.782;10.356;2024-02-23T06:19:30;9.70;99.90
39983;DHT22;25670;44.782;10.356;2024-02-23T06:21:56;9.70;99.90
39983;DHT22;25670;44.782;10.356;2024-02-23T06:24:22;9.70;99.90
39983;DHT22;25670;44.782;10.356;2024-02-23T06:26:49;9.60;99.90
39983;DHT22;25670;44.782;10.356;2024-02-23T06:29:15;9.60;99.90
39983;DHT22;25670;44.782;10.356;2024-02-23T06:31:42;9.60;99.90
39983;DHT22;25670;44.782;10.356;2024-02-23T06:34:08;9.60;99.90
39983;DHT22;25670;44.782;10.356;2024-02-23T06:36:35;9.50;99.90
39983;DHT22;25670;44.782;10.356;2024-02-23T06:39:01;9.50;99.90
39983;DHT22;25670;44.782;10.356;2024-02-23T06:41:29;9.50;99.90
39983;DHT22;25670;44.782;10.356;2024-02-23T06:43:56;9.40;99.90
39983;DHT22;25670;44.782;10.356;2024-02-23T06:46:22;9.40;99.90
39983;DHT22;25670;44.782;10.356;2024-02-23T06:48:48;9.40;99.90
39983;DHT22;25670;44.782;10.356;2024-02-23T06:51:15;9.40;99.90
39983;DHT22;25670;44.782;10.356;2024-02-23T06:53:42;9.40;99.90
39983;DHT22;25670;44.782;10.356;2024-02-23T06:56:08;9.30;99.90
39983;DHT22;25670;44.782;10.356;2024-02-23T06:58:34;9.30;99.90
39983;DHT22;25670;44.782;10.356;2024-02-23T07:01:01;9.30;99.90
39983;DHT22;25670;44.782;10.356;2024-02-23T07:03:29;9.20;99.90
39983;DHT22;25670;44.782;10.356;2024-02-23T07:05:56;9.20;99.90
39983;DHT22;25670;44.782;10.356;2024-02-23T07:08:22;9.10;99.90
39983;DHT22;25670;44.782;10.356;2024-02-23T07:10:49;9.20;99.90
39983;DHT22;25670;44.782;10.356;2024-02-23T07:13:15;9.20;99.90
39983;DHT22;25670;44.782;10.356;2024-02-23T07:15:43;9.20;99.90
39983;DHT22;25670;44.782;10.356;2024-02-23T07:18:09;9.20;99.90
39983;DHT22;25670;44.782;10.356;2024-02-23T07:20:36;9.20;99.90
39983;DHT22;25670;44.782;10.356;2024-02-23T07:23:02;9.10;99.90
39983;DHT22;25670;44.782;10.356;2024-02-23T07:25:29;9.10;99.90
39983;DHT22;25670;44.782;10.356;2024-02-23T07:27:55;9.10;99.90
39983;DHT22;25670;44.782;10.356;2024-02-23T07:30:22;9.10;99.90
39983;DHT22;25670;44.782;10.356;2024-02-23T07:32:48;9.10;99.90
39983;DHT22;25670;44.782;10.356;2024-02-23T07:35:15;9.10;99.90
39983;DHT22;25670;44.782;10.356;2024-02-23T07:37:41;9.00;99.90
39983;DHT22;25670;44.782;10.356;2024-02-23T07:40:07;9.00;99.90
39983;DHT22;25670;44.782;10.356;2024-02-23T07:42:34;9.00;99.90
39983;DHT22;25670;44.782;10.356;2024-02-23T07:45:04;8.90;99.90
39983;DHT22;25670;44.782;10.356;2024-02-23T07:47:31;8.90;99.90
39983;DHT22;25670;44.782;10.356;2024-02-23T07:49:58;8.80;99.90
39983;DHT22;25670;44.782;10.356;2024-02-23T07:52:25;8.80;99.90
39983;DHT22;25670;44.782;10.356;2024-02-23T07:54:52;8.80;99.90
39983;DHT22;25670;44.782;10.356;2024-02-23T07:57:19;8.80;99.90
39983;DHT22;25670;44.782;10.356;2024-02-23T07:59:45;8.80;99.90
39983;DHT22;25670;44.782;10.356;2024-02-23T08:02:12;8.80;99.90
39983;DHT22;25670;44.782;10.356;2024-02-23T08:04:38;8.90;99.90
39983;DHT22;25670;44.782;10.356;2024-02-23T08:07:05;8.80;99.90
39983;DHT22;25670;44.782;10.356;2024-02-23T08:09:31;8.90;99.90
39983;DHT22;25670;44.782;10.356;2024-02-23T08:11:58;8.80;99.90
39983;DHT22;25670;44.782;10.356;2024-02-23T08:14:24;8.80;99.90
39983;DHT22;25670;44.782;10.356;2024-02-23T08:16:50;8.80;99.90
39983;DHT22;25670;44.782;10.356;2024-02-23T08:19:17;8.80;99.90
39983;DHT22;25670;44.782;10.356;2024-02-23T08:21:43;8.80;99.90
39983;DHT22;25670;44.782;10.356;2024-02-23T08:24:10;8.80;99.90
39983;DHT22;25670;44.782;10.356;2024-02-23T08:26:36;8.80;99.90
39983;DHT22;25670;44.782;10.356;2024-02-23T08:29:04;8.80;99.90
39983;DHT22;25670;44.782;10.356;2024-02-23T08:31:31;8.90;99.90
39983;DHT22;25670;44.782;10.356;2024-02-23T08:33:57;8.80;99.90
39983;DHT22;25670;44.782;10.356;2024-02-23T08:36:24;9.10;99.90
39983;DHT22;25670;44.782;10.356;2024-02-23T08:38:50;8.80;99.90
39983;DHT22;25670;44.782;10.356;2024-02-23T08:41:16;8.90;99.90
39983;DHT22;25670;44.782;10.356;2024-02-23T08:43:42;8.80;99.90
39983;DHT22;25670;44.782;10.356;2024-02-23T08:46:09;9.00;99.90
39983;DHT22;25670;44.782;10.356;2024-02-23T08:48:35;8.80;99.90
39983;DHT22;25670;44.782;10.356;2024-02-23T08:51:01;8.80;99.90
39983;DHT22;25670;44.782;10.356;2024-02-23T08:53:27;8.80;99.90
39983;DHT22;25670;44.782;10.356;2024-02-23T08:55:54;8.80;99.90
39983;DHT22;25670;44.782;10.356;2024-02-23T08:58:20;8.70;99.90
39983;DHT22;25670;44.782;10.356;2024-02-23T09:00:47;8.80;99.90
39983;DHT22;25670;44.782;10.356;2024-02-23T09:03:14;8.80;99.90
39983;DHT22;25670;44.782;10.356;2024-02-23T09:05:40;8.80;99.90
39983;DHT22;25670;44.782;10.356;2024-02-23T09:08:06;8.80;99.90
39983;DHT22;25670;44.782;10.356;2024-02-23T09:13:00;8.80;99.90
39983;DHT22;25670;44.782;10.356;2024-02-23T09:15:26;8.80;99.90
39983;DHT22;25670;44.782;10.356;2024-02-23T09:17:52;8.70;99.90
39983;DHT22;25670;44.782;10.356;2024-02-23T09:20:19;8.80;99.90
39983;DHT22;25670;44.782;10.356;2024-02-23T09:22:45;8.70;99.90
39983;DHT22;25670;44.782;10.356;2024-02-23T09:25:11;8.70;99.90
39983;DHT22;25670;44.782;10.356;2024-02-23T09:27:38;8.70;99.90
39983;DHT22;25670;44.782;10.356;2024-02-23T09:30:13;8.70;99.90
39983;DHT22;25670;44.782;10.356;2024-02-23T09:32:39;8.70;99.90
39983;DHT22;25670;44.782;10.356;2024-02-23T09:35:06;8.70;99.90
39983;DHT22;25670;44.782;10.356;2024-02-23T09:37:33;8.70;99.90
39983;DHT22;25670;44.782;10.356;2024-02-23T09:39:59;8.70;99.90
39983;DHT22;25670;44.782;10.356;2024-02-23T09:42:25;8.70;99.90
39983;DHT22;25670;44.782;10.356;2024-02-23T09:44:58;8.80;99.90
39983;DHT22;25670;44.782;10.356;2024-02-23T09:47:28;8.80;99.90
39983;DHT22;25670;44.782;10.356;2024-02-23T09:49:55;8.80;99.90
39983;DHT22;25670;44.782;10.356;2024-02-23T09:52:22;8.80;99.90
39983;DHT22;25670;44.782;10.356;2024-02-23T09:54:49;8.90;99.90
39983;DHT22;25670;44.782;10.356;2024-02-23T09:57:16;8.90;99.90
39983;DHT22;25670;44.782;10.356;2024-02-23T09:59:45;9.00;99.90
39983;DHT22;25670;44.782;10.356;2024-02-23T10:02:15;9.00;99.90
39983;DHT22;25670;44.782;10.356;2024-02-23T10:04:43;9.00;99.90
39983;DHT22;25670;44.782;10.356;2024-02-23T10:07:10;9.00;99.90
39983;DHT22;25670;44.782;10.356;2024-02-23T10:09:36;9.00;99.90
39983;DHT22;25670;44.782;10.356;2024-02-23T10:12:03;9.00;99.90
39983;DHT22;25670;44.782;10.356;2024-02-23T10:14:30;9.00;99.90
39983;DHT22;25670;44.782;10.356;2024-02-23T10:16:56;9.00;99.90
39983;DHT22;25670;44.782;10.356;2024-02-23T10:19:23;9.10;99.90
39983;DHT22;25670;44.782;10.356;2024-02-23T10:21:55;9.10;99.90
39983;DHT22;25670;44.782;10.356;2024-02-23T10:24:23;9.20;99.90
39983;DHT22;25670;44.782;10.356;2024-02-23T10:26:51;9.40;99.90
39983;DHT22;25670;44.782;10.356;2024-02-23T10:29:18;9.40;99.90
39983;DHT22;25670;44.782;10.356;2024-02-23T10:31:47;9.40;99.90
39983;DHT22;25670;44.782;10.356;2024-02-23T10:34:19;9.40;99.90
39983;DHT22;25670;44.782;10.356;2024-02-23T10:36:46;9.50;99.90
39983;DHT22;25670;44.782;10.356;2024-02-23T10:39:18;9.50;99.90
39983;DHT22;25670;44.782;10.356;2024-02-23T10:41:57;9.40;99.90
39983;DHT22;25670;44.782;10.356;2024-02-23T10:44:25;9.40;99.90
39983;DHT22;25670;44.782;10.356;2024-02-23T10:46:53;9.40;99.90
39983;DHT22;25670;44.782;10.356;2024-02-23T10:49:23;9.30;99.90
39983;DHT22;25670;44.782;10.356;2024-02-23T10:51:52;9.30;99.90
39983;DHT22;25670;44.782;10.356;2024-02-23T10:54:20;9.30;99.90
39983;DHT22;25670;44.782;10.356;2024-02-23T10:56:49;9.40;99.90
39983;DHT22;25670;44.782;10.356;2024-02-23T10:59:19;9.40;99.90
39983;DHT22;25670;44.782;10.356;2024-02-23T11:01:51;9.50;99.90
39983;DHT22;25670;44.782;10.356;2024-02-23T11:04:19;9.60;99.90
39983;DHT22;25670;44.782;10.356;2024-02-23T11:06:50;9.80;99.90
39983;DHT22;25670;44.782;10.356;2024-02-23T11:09:21;9.80;99.90
39983;DHT22;25670;44.782;10.356;2024-02-23T11:11:55;9.90;99.90
39983;DHT22;25670;44.782;10.356;2024-02-23T11:14:51;10.00;99.90
39983;DHT22;25670;44.782;10.356;2024-02-23T11:17:19;10.00;99.90
39983;DHT22;25670;44.782;10.356;2024-02-23T11:19:49;10.00;99.90
39983;DHT22;25670;44.782;10.356;2024-02-23T11:22:31;10.00;99.90
39983;DHT22;25670;44.782;10.356;2024-02-23T11:25:07;10.20;99.90
39983;DHT22;25670;44.782;10.356;2024-02-23T11:27:38;10.30;99.90
39983;DHT22;25670;44.782;10.356;2024-02-23T11:30:08;10.30;99.90
39983;DHT22;25670;44.782;10.356;2024-02-23T11:32:41;10.30;99.90
39983;DHT22;25670;44.782;10.356;2024-02-23T11:35:11;10.30;99.90
39983;DHT22;25670;44.782;10.356;2024-02-23T11:37:52;10.30;99.90
39983;DHT22;25670;44.782;10.356;2024-02-23T11:40:26;10.10;99.90
39983;DHT22;25670;44.782;10.356;2024-02-23T11:42:54;10.10;99.90
39983;DHT22;25670;44.782;10.356;2024-02-23T11:45:21;10.00;99.90
39983;DHT22;25670;44.782;10.356;2024-02-23T11:47:48;10.20;99.90
39983;DHT22;25670;44.782;10.356;2024-02-23T11:50:14;10.20;99.90
39983;DHT22;25670;44.782;10.356;2024-02-23T11:52:42;10.30;99.90
39983;DHT22;25670;44.782;10.356;2024-02-23T11:55:09;10.20;99.90
39983;DHT22;25670;44.782;10.356;2024-02-23T11:57:36;10.30;99.90
39983;DHT22;25670;44.782;10.356;2024-02-23T12:00:03;10.20;99.90
39983;DHT22;25670;44.782;10.356;2024-02-23T12:02:31;10.20;99.90
39983;DHT22;25670;44.782;10.356;2024-02-23T12:04:58;10.10;99.90
39983;DHT22;25670;44.782;10.356;2024-02-23T12:07:25;10.10;99.90
39983;DHT22;25670;44.782;10.356;2024-02-23T12:09:52;10.10;99.90
39983;DHT22;25670;44.782;10.356;2024-02-23T12:12:19;10.10;99.90
39983;DHT22;25670;44.782;10.356;2024-02-23T12:14:46;10.10;99.90
39983;DHT22;25670;44.782;10.356;2024-02-23T12:17:13;10.10;99.90
39983;DHT22;25670;44.782;10.356;2024-02-23T12:19:41;10.50;99.90
39983;DHT22;25670;44.782;10.356;2024-02-23T12:22:08;10.30;99.90
39983;DHT22;25670;44.782;10.356;2024-02-23T12:24:36;10.30;99.90
39983;DHT22;25670;44.782;10.356;2024-02-23T12:27:02;10.30;99.90
39983;DHT22;25670;44.782;10.356;2024-02-23T12:29:31;10.20;99.90
39983;DHT22;25670;44.782;10.356;2024-02-23T12:32:07;10.10;99.90
39983;DHT22;25670;44.782;10.356;2024-02-23T12:34:34;10.10;99.90
39983;DHT22;25670;44.782;10.356;2024-02-23T12:37:02;10.10;99.90
39983;DHT22;25670;44.782;10.356;2024-02-23T12:39:30;10.00;99.90
39983;DHT22;25670;44.782;10.356;2024-02-23T12:41:56;10.90;99.90
39983;DHT22;25670;44.782;10.356;2024-02-23T12:44:23;10.10;99.90
39983;DHT22;25670;44.782;10.356;2024-02-23T12:46:49;10.20;99.90
39983;DHT22;25670;44.782;10.356;2024-02-23T12:49:15;10.30;99.90
39983;DHT22;25670;44.782;10.356;2024-02-23T12:51:42;10.30;99.90
39983;DHT22;25670;44.782;10.356;2024-02-23T12:54:09;10.30;99.90
39983;DHT22;25670;44.782;10.356;2024-02-23T12:56:35;10.20;99.90
39983;DHT22;25670;44.782;10.356;2024-02-23T12:59:02;10.20;99.90
39983;DHT22;25670;44.782;10.356;2024-02-23T13:01:28;10.30;99.90
39983;DHT22;25670;44.782;10.356;2024-02-23T13:03:55;10.30;99.90
39983;DHT22;25670;44.782;10.356;2024-02-23T13:06:21;10.20;99.90
39983;DHT22;25670;44.782;10.356;2024-02-23T13:08:48;10.30;99.90
39983;DHT22;25670;44.782;10.356;2024-02-23T13:11:14;10.20;99.90
39983;DHT22;25670;44.782;10.356;2024-02-23T13:13:41;10.20;99.90
39983;DHT22;25670;44.782;10.356;2024-02-23T13:16:07;10.20;99.90
39983;DHT22;25670;44.782;10.356;2024-02-23T13:18:34;10.20;99.90
39983;DHT22;25670;44.782;10.356;2024-02-23T13:21:01;10.10;99.90
39983;DHT22;25670;44.782;10.356;2024-02-23T13:23:27;10.10;99.90
39983;DHT22;25670;44.782;10.356;2024-02-23T13:25:54;10.10;99.90
39983;DHT22;25670;44.782;10.356;2024-02-23T13:28:20;10.10;99.90
39983;DHT22;25670;44.782;10.356;2024-02-23T13:30:47;10.00;99.90
39983;DHT22;25670;44.782;10.356;2024-02-23T13:33:13;10.00;99.90
39983;DHT22;25670;44.782;10.356;2024-02-23T13:35:42;10.00;99.90
39983;DHT22;25670;44.782;10.356;2024-02-23T13:38:09;10.00;99.90
39983;DHT22;25670;44.782;10.356;2024-02-23T13:40:35;10.10;99.90
39983;DHT22;25670;44.782;10.356;2024-02-23T13:43:02;10.10;99.90
39983;DHT22;25670;44.782;10.356;2024-02-23T13:45:28;10.20;99.90
39983;DHT22;25670;44.782;10.356;2024-02-23T13:48:00;10.40;99.90
39983;DHT22;25670;44.782;10.356;2024-02-23T13:50:27;10.50;99.90
39983;DHT22;25670;44.782;10.356;2024-02-23T13:52:54;10.50;99.90
39983;DHT22;25670;44.782;10.356;2024-02-23T13:55:21;10.50;99.90
39983;DHT22;25670;44.782;10.356;2024-02-23T13:57:48;10.50;99.90
39983;DHT22;25670;44.782;10.356;2024-02-23T14:00:16;10.50;99.90
39983;DHT22;25670;44.782;10.356;2024-02-23T14:02:43;10.50;99.90
39983;DHT22;25670;44.782;10.356;2024-02-23T14:05:11;10.50;99.90
39983;DHT22;25670;44.782;10.356;2024-02-23T14:07:37;10.40;99.90
39983;DHT22;25670;44.782;10.356;2024-02-23T14:10:04;10.50;99.90
39983;DHT22;25670;44.782;10.356;2024-02-23T14:12:31;10.60;99.90
39983;DHT22;25670;44.782;10.356;2024-02-23T14:14:57;10.60;99.90
39983;DHT22;25670;44.782;10.356;2024-02-23T14:17:24;10.60;99.90
39983;DHT22;25670;44.782;10.356;2024-02-23T14:19:50;10.70;99.90
39983;DHT22;25670;44.782;10.356;2024-02-23T14:22:17;10.60;99.90
39983;DHT22;25670;44.782;10.356;2024-02-23T14:24:43;10.60;99.90
39983;DHT22;25670;44.782;10.356;2024-02-23T14:27:10;10.60;99.90
39983;DHT22;25670;44.782;10.356;2024-02-23T14:29:36;10.60;99.90
39983;DHT22;25670;44.782;10.356;2024-02-23T14:32:03;10.70;99.90
39983;DHT22;25670;44.782;10.356;2024-02-23T14:34:30;10.70;99.90
39983;DHT22;25670;44.782;10.356;2024-02-23T14:36:59;10.90;99.90
39983;DHT22;25670;44.782;10.356;2024-02-23T14:39:26;11.30;99.90
39983;DHT22;25670;44.782;10.356;2024-02-23T14:41:52;11.50;99.90
39983;DHT22;25670;44.782;10.356;2024-02-23T14:44:19;11.80;99.90
39983;DHT22;25670;44.782;10.356;2024-02-23T14:46:45;12.10;99.90
39983;DHT22;25670;44.782;10.356;2024-02-23T14:49:11;12.30;99.90
39983;DHT22;25670;44.782;10.356;2024-02-23T14:51:38;12.40;99.90
39983;DHT22;25670;44.782;10.356;2024-02-23T14:56:32;12.10;99.90
39983;DHT22;25670;44.782;10.356;2024-02-23T14:58:58;12.20;99.90
39983;DHT22;25670;44.782;10.356;2024-02-23T15:01:25;12.20;99.90
39983;DHT22;25670;44.782;10.356;2024-02-23T15:03:52;12.30;99.90
39983;DHT22;25670;44.782;10.356;2024-02-23T15:06:18;12.20;99.90
39983;DHT22;25670;44.782;10.356;2024-02-23T15:08:45;12.10;99.90
39983;DHT22;25670;44.782;10.356;2024-02-23T15:11:12;12.30;99.90
39983;DHT22;25670;44.782;10.356;2024-02-23T15:13:38;12.20;99.90
39983;DHT22;25670;44.782;10.356;2024-02-23T15:16:06;12.20;99.90
39983;DHT22;25670;44.782;10.356;2024-02-23T15:18:32;12.30;99.90
39983;DHT22;25670;44.782;10.356;2024-02-23T15:20:58;12.50;99.90
39983;DHT22;25670;44.782;10.356;2024-02-23T15:23:25;12.50;99.90
39983;DHT22;25670;44.782;10.356;2024-02-23T15:25:51;12.80;99.90
39983;DHT22;25670;44.782;10.356;2024-02-23T15:28:17;12.90;99.90
39983;DHT22;25670;44.782;10.356;2024-02-23T15:30:49;13.00;99.90
39983;DHT22;25670;44.782;10.356;2024-02-23T15:33:16;12.70;99.90
39983;DHT22;25670;44.782;10.356;2024-02-23T15:35:43;12.60;99.90
39983;DHT22;25670;44.782;10.356;2024-02-23T15:38:09;12.60;99.90
39983;DHT22;25670;44.782;10.356;2024-02-23T15:40:35;12.40;99.90
39983;DHT22;25670;44.782;10.356;2024-02-23T15:43:02;12.30;99.90
39983;DHT22;25670;44.782;10.356;2024-02-23T15:45:29;12.00;99.90
39983;DHT22;25670;44.782;10.356;2024-02-23T15:47:56;11.80;99.90
39983;DHT22;25670;44.782;10.356;2024-02-23T15:50:22;11.70;99.90
39983;DHT22;25670;44.782;10.356;2024-02-23T15:52:49;12.20;99.90
39983;DHT22;25670;44.782;10.356;2024-02-23T15:55:15;11.60;99.90
39983;DHT22;25670;44.782;10.356;2024-02-23T15:57:41;11.90;99.90
39983;DHT22;25670;44.782;10.356;2024-02-23T16:00:09;11.90;99.90
39983;DHT22;25670;44.782;10.356;2024-02-23T16:02:38;11.70;99.90
39983;DHT22;25670;44.782;10.356;2024-02-23T16:05:05;11.60;99.90
39983;DHT22;25670;44.782;10.356;2024-02-23T16:07:33;11.40;99.90
39983;DHT22;25670;44.782;10.356;2024-02-23T16:10:00;11.20;99.90
39983;DHT22;25670;44.782;10.356;2024-02-23T16:12:27;11.20;99.90
39983;DHT22;25670;44.782;10.356;2024-02-23T16:14:53;11.20;99.90
39983;DHT22;25670;44.782;10.356;2024-02-23T16:17:20;11.30;99.90
39983;DHT22;25670;44.782;10.356;2024-02-23T16:19:46;11.30;99.90
39983;DHT22;25670;44.782;10.356;2024-02-23T16:22:12;11.30;99.90
39983;DHT22;25670;44.782;10.356;2024-02-23T16:24:39;11.10;99.90
39983;DHT22;25670;44.782;10.356;2024-02-23T16:27:06;10.80;99.90
39983;DHT22;25670;44.782;10.356;2024-02-23T16:29:33;10.70;99.90
39983;DHT22;25670;44.782;10.356;2024-02-23T16:31:59;10.70;99.90
39983;DHT22;25670;44.782;10.356;2024-02-23T16:34:26;10.80;99.90
39983;DHT22;25670;44.782;10.356;2024-02-23T16:36:52;10.90;99.90
39983;DHT22;25670;44.782;10.356;2024-02-23T16:39:19;10.90;99.90
39983;DHT22;25670;44.782;10.356;2024-02-23T16:41:45;10.80;99.90
39983;DHT22;25670;44.782;10.356;2024-02-23T16:44:11;10.70;99.90
39983;DHT22;25670;44.782;10.356;2024-02-23T16:46:40;10.50;99.90
39983;DHT22;25670;44.782;10.356;2024-02-23T16:49:06;10.40;99.90
39983;DHT22;25670;44.782;10.356;2024-02-23T16:51:33;10.20;99.90
39983;DHT22;25670;44.782;10.356;2024-02-23T16:53:59;10.10;99.90
39983;DHT22;25670;44.782;10.356;2024-02-23T16:56:25;9.90;99.90
39983;DHT22;25670;44.782;10.356;2024-02-23T16:58:54;9.80;99.90